Airport View

Enter AWOS ICAO identifier for current METAR.

ex. KFNL

KSTE 040535Z AUTO 00000KT 10SM SCT050 BKN060 OVC065 10/10 A3014 RMK AO2 T00950095

4 Aug 2020 05:36

Frequency: 119.275

Phone: 715-344-5960

Other Area AWOS: KCWA - KISW - KAUW - KPCZ

TAF KCWA 032320Z 0400/0424 02006KT P6SM BKN060 FM040400 01003KT P6SM SCT070 FM041500 36007G12KT P6SM SCT045 TEMPO 0417/0420 BKN050